Time;durP1;ratioP1;P1;durP2;ratioP2;P2;SDS_P1;SDS_P2;PMS_P1;PMS_P2;Temp;Humidity;BMP_temperature;BMP_pressure;BME280_temperature;BME280_humidity;BME280_pressure;Samples;Min_cycle;Max_cycle;Signal;HPM_P1;HPM_P2
2023/07/04 00:54:13;;;;;;;2.30;2.10;;;19.50;99.90;;;;;;6192801;22;1476253;-89
2023/07/04 00:56:40;;;;;;;3.50;2.00;;;20.00;99.90;;;;;;6224956;23;20008;-89
2023/07/04 00:59:08;;;;;;;1.80;1.70;;;20.00;99.90;;;;;;6223428;23;20000;-88
2023/07/04 01:01:34;;;;;;;2.42;1.73;;;20.00;99.90;;;;;;6248996;23;20057;-89
2023/07/04 01:04:03;;;;;;;1.98;1.73;;;20.00;99.90;;;;;;6221030;23;20339;-92
2023/07/04 01:06:55;;;;;;;2.30;1.75;;;19.90;99.90;;;;;;6222502;23;20058;-92
2023/07/04 01:09:23;;;;;;;1.48;1.38;;;19.90;99.90;;;;;;6220403;23;20000;-89
2023/07/04 01:11:52;;;;;;;3.28;1.63;;;19.90;99.90;;;;;;6253557;23;20080;-90
2023/07/04 01:14:25;;;;;;;2.55;1.70;;;19.90;99.90;;;;;;6227752;23;20004;-93
2023/07/04 01:16:52;;;;;;;2.17;1.98;;;20.00;99.90;;;;;;6227131;23;20086;-92
2023/07/04 01:19:32;;;;;;;2.92;2.00;;;20.00;99.90;;;;;;6226569;23;20004;-90
2023/07/04 01:22:27;;;;;;;3.03;2.15;;;20.10;99.90;;;;;;6250499;23;20004;-90
2023/07/04 01:25:09;;;;;;;1.30;1.20;;;20.10;99.90;;;;;;6250853;23;20000;-90
2023/07/04 01:27:36;;;;;;;1.98;1.88;;;20.00;99.90;;;;;;6223859;23;20435;-91
2023/07/04 01:30:04;;;;;;;2.20;1.60;;;19.90;99.90;;;;;;6224183;23;20431;-90
2023/07/04 01:32:31;;;;;;;1.30;1.30;;;19.80;99.90;;;;;;6223588;23;20046;-90
2023/07/04 01:35:00;;;;;;;1.83;1.70;;;19.90;99.90;;;;;;6250800;23;20079;-91
2023/07/04 01:37:29;;;;;;;1.60;1.50;;;19.80;99.90;;;;;;6250572;23;19996;-91
2023/07/04 01:40:00;;;;;;;4.68;1.67;;;19.80;99.90;;;;;;6224218;23;20457;-89
2023/07/04 01:42:31;;;;;;;2.05;1.90;;;19.80;99.90;;;;;;6223960;23;20035;-91
2023/07/04 01:45:05;;;;;;;1.85;1.75;;;19.80;99.90;;;;;;6224533;23;20126;-91
2023/07/04 01:47:33;;;;;;;2.13;1.90;;;19.80;99.90;;;;;;6224263;23;20008;-91
2023/07/04 01:50:00;;;;;;;3.15;1.80;;;19.80;99.90;;;;;;6253099;23;20000;-90
2023/07/04 01:52:27;;;;;;;2.50;2.30;;;19.80;99.90;;;;;;6227873;23;20016;-90
2023/07/04 01:54:53;;;;;;;4.75;2.25;;;19.80;99.90;;;;;;6244989;23;20061;-91
2023/07/04 01:57:19;;;;;;;4.63;2.22;;;19.80;99.90;;;;;;6244541;23;20141;-91
2023/07/04 01:59:45;;;;;;;4.15;2.25;;;19.80;99.90;;;;;;6246121;23;20040;-91
2023/07/04 02:02:11;;;;;;;2.35;1.95;;;19.70;99.90;;;;;;6244464;23;20505;-91
2023/07/04 02:04:37;;;;;;;6.65;2.63;;;19.70;99.90;;;;;;6246024;23;20059;-91
2023/07/04 02:07:03;;;;;;;2.38;2.15;;;19.80;99.90;;;;;;6244404;23;20008;-91
2023/07/04 02:09:28;;;;;;;2.08;1.90;;;19.70;99.90;;;;;;6246302;22;20058;-91
2023/07/04 02:11:54;;;;;;;2.50;2.10;;;19.70;99.90;;;;;;6244319;23;20004;-91
2023/07/04 02:14:20;;;;;;;2.15;1.95;;;19.70;99.90;;;;;;6244353;23;20034;-91
2023/07/04 02:16:45;;;;;;;2.30;2.10;;;19.70;99.90;;;;;;6243996;23;20380;-91
2023/07/04 02:19:11;;;;;;;2.00;1.83;;;19.70;99.90;;;;;;6244260;23;20150;-91
2023/07/04 02:21:37;;;;;;;1.98;1.88;;;19.60;99.90;;;;;;6245726;23;20001;-92
2023/07/04 02:24:03;;;;;;;1.73;1.63;;;19.60;99.90;;;;;;6245686;23;20001;-91
2023/07/04 02:26:32;;;;;;;4.82;2.80;;;19.60;99.90;;;;;;6243588;23;20007;-91
2023/07/04 02:29:00;;;;;;;1.98;1.70;;;19.60;99.90;;;;;;6244360;23;20008;-91
2023/07/04 02:31:27;;;;;;;2.65;1.95;;;19.60;99.90;;;;;;6244016;23;20004;-92
2023/07/04 02:33:53;;;;;;;2.20;2.05;;;19.60;99.90;;;;;;6245585;23;20323;-92
2023/07/04 02:36:19;;;;;;;2.00;1.90;;;19.60;99.90;;;;;;6245645;22;20000;-92
2023/07/04 02:38:46;;;;;;;2.13;2.03;;;19.70;99.90;;;;;;6244446;23;20047;-91
2023/07/04 02:41:12;;;;;;;4.68;2.28;;;19.60;99.90;;;;;;6243962;23;20003;-91
2023/07/04 02:43:38;;;;;;;2.08;1.98;;;19.60;99.90;;;;;;6244063;23;20024;-91
2023/07/04 02:46:05;;;;;;;5.70;2.05;;;19.60;99.90;;;;;;6243481;23;20031;-91
2023/07/04 02:48:32;;;;;;;3.97;2.00;;;19.50;99.90;;;;;;6244147;23;20004;-91
2023/07/04 02:50:58;;;;;;;2.03;1.90;;;19.30;99.90;;;;;;6245076;23;20491;-92
2023/07/04 02:53:24;;;;;;;3.03;1.80;;;19.30;99.90;;;;;;6243647;23;20016;-92
2023/07/04 02:55:52;;;;;;;2.22;2.10;;;19.30;99.90;;;;;;6243889;23;20459;-92
2023/07/04 02:58:18;;;;;;;2.80;1.75;;;19.30;99.90;;;;;;6245165;23;20477;-92
2023/07/04 03:00:46;;;;;;;6.28;2.08;;;19.30;99.90;;;;;;6243878;23;20478;-92
2023/07/04 03:03:12;;;;;;;1.80;1.70;;;19.40;99.90;;;;;;6244044;23;20028;-92
2023/07/04 03:05:37;;;;;;;2.38;1.92;;;19.40;99.90;;;;;;6243415;23;20012;-91
2023/07/04 03:08:04;;;;;;;1.80;1.70;;;19.30;99.90;;;;;;6243760;23;20015;-91
2023/07/04 03:10:30;;;;;;;3.08;1.95;;;19.30;99.90;;;;;;6243691;23;20004;-90
2023/07/04 03:12:56;;;;;;;4.10;2.25;;;19.30;99.90;;;;;;6245049;23;20265;-91
2023/07/04 03:15:22;;;;;;;1.80;1.70;;;19.30;99.90;;;;;;6243871;23;20034;-92
2023/07/04 03:17:48;;;;;;;5.32;1.77;;;19.30;99.90;;;;;;6245197;23;20328;-93
2023/07/04 03:20:14;;;;;;;2.28;1.60;;;19.30;99.90;;;;;;6245440;23;20071;-92
2023/07/04 03:22:41;;;;;;;2.05;1.85;;;19.30;99.90;;;;;;6243769;23;20004;-90
2023/07/04 03:25:08;;;;;;;3.13;2.58;;;19.20;99.90;;;;;;6245240;23;20004;-91
2023/07/04 03:27:36;;;;;;;2.72;2.20;;;19.10;99.90;;;;;;6243630;23;20015;-92
2023/07/04 03:30:03;;;;;;;1.60;1.50;;;19.00;99.90;;;;;;6243619;23;20012;-92
2023/07/04 03:32:29;;;;;;;2.20;1.95;;;19.00;99.90;;;;;;6243007;23;20036;-91
2023/07/04 03:35:00;;;;;;;2.80;1.83;;;19.00;99.90;;;;;;6243572;23;20007;-91
2023/07/04 03:37:33;;;;;;;2.53;1.90;;;19.00;99.90;;;;;;6243298;23;20000;-91
2023/07/04 03:40:00;;;;;;;2.20;2.00;;;19.10;99.90;;;;;;6245090;23;20007;-90
2023/07/04 03:42:26;;;;;;;2.10;1.88;;;19.10;99.90;;;;;;6243100;23;20090;-91
2023/07/04 03:44:53;;;;;;;2.13;1.85;;;19.20;99.90;;;;;;6243399;23;20129;-91
2023/07/04 03:47:19;;;;;;;4.43;2.88;;;19.10;99.90;;;;;;6242763;23;20036;-91
2023/07/04 03:49:45;;;;;;;4.50;3.63;;;19.10;99.90;;;;;;6243618;23;20008;-91
2023/07/04 03:52:11;;;;;;;4.35;3.88;;;19.10;99.90;;;;;;6242843;23;20024;-91
2023/07/04 03:54:37;;;;;;;5.15;4.65;;;19.30;99.90;;;;;;6218226;23;20082;-91
2023/07/04 03:57:03;;;;;;;4.70;4.07;;;19.30;99.90;;;;;;6217879;23;20443;-91
2023/07/04 03:59:29;;;;;;;7.97;4.13;;;19.30;99.90;;;;;;6218089;23;20004;-91
2023/07/04 04:01:55;;;;;;;6.82;4.60;;;19.30;99.90;;;;;;6217457;23;20519;-91
2023/07/04 04:04:20;;;;;;;4.70;4.28;;;19.40;99.90;;;;;;6217783;23;20008;-91
2023/07/04 04:06:51;;;;;;;4.68;4.32;;;19.40;99.90;;;;;;6217850;23;20090;-91
2023/07/04 04:09:17;;;;;;;5.47;4.93;;;19.40;99.90;;;;;;6244783;23;20463;-91
2023/07/04 04:11:43;;;;;;;6.72;4.60;;;19.50;99.90;;;;;;6217553;23;20004;-90
2023/07/04 04:14:09;;;;;;;4.78;4.38;;;19.50;99.90;;;;;;6217937;23;20031;-91
2023/07/04 04:16:35;;;;;;;3.08;2.83;;;19.50;99.90;;;;;;6217588;23;20031;-91
2023/07/04 04:19:01;;;;;;;4.68;2.92;;;19.50;99.90;;;;;;6217973;23;20003;-90
2023/07/04 04:21:27;;;;;;;3.22;3.03;;;19.50;99.90;;;;;;6244322;23;20058;-91
2023/07/04 04:23:53;;;;;;;4.40;3.42;;;19.50;99.90;;;;;;6217616;23;20001;-91
2023/07/04 04:26:20;;;;;;;5.80;4.03;;;19.50;99.90;;;;;;6217616;23;20000;-91
2023/07/04 04:28:46;;;;;;;6.38;4.60;;;19.60;99.90;;;;;;6218037;23;20087;-90
2023/07/04 04:31:12;;;;;;;3.25;3.05;;;19.60;99.90;;;;;;6217320;23;20391;-91
2023/07/04 04:33:38;;;;;;;2.10;2.00;;;19.60;99.90;;;;;;6217882;23;20004;-91
2023/07/04 04:36:04;;;;;;;2.58;2.20;;;19.50;99.90;;;;;;6244405;23;20011;-91
2023/07/04 04:38:31;;;;;;;2.33;2.13;;;19.50;99.90;;;;;;6217907;23;20103;-91
2023/07/04 04:41:04;;;;;;;2.55;2.33;;;19.50;99.90;;;;;;6217538;23;20058;-90
2023/07/04 04:43:32;;;;;;;4.45;2.05;;;19.50;99.90;;;;;;6217708;23;20003;-90
2023/07/04 04:46:02;;;;;;;2.38;2.17;;;19.50;99.90;;;;;;6217328;23;20058;-90
2023/07/04 04:48:35;;;;;;;2.10;2.00;;;19.50;99.90;;;;;;6244295;23;20079;-91
2023/07/04 04:51:09;;;;;;;3.78;2.13;;;19.50;99.90;;;;;;6217706;23;20008;-91
2023/07/04 04:53:36;;;;;;;2.90;1.80;;;19.50;99.90;;;;;;6233957;23;20020;-90
2023/07/04 04:56:03;;;;;;;3.78;1.80;;;19.40;99.90;;;;;;6242545;23;20004;-91
2023/07/04 04:58:30;;;;;;;3.13;1.73;;;19.40;99.90;;;;;;6244611;23;20001;-91
2023/07/04 05:00:55;;;;;;;4.20;2.10;;;19.40;99.90;;;;;;6242501;23;20010;-91
2023/07/04 05:03:21;;;;;;;1.60;1.50;;;19.40;99.90;;;;;;6244524;23;20087;-92
2023/07/04 05:05:47;;;;;;;2.20;1.98;;;19.50;99.90;;;;;;6244509;23;20309;-91
2023/07/04 05:08:13;;;;;;;2.38;1.90;;;19.60;99.90;;;;;;6244719;23;20004;-91
2023/07/04 05:10:39;;;;;;;3.35;1.70;;;19.60;99.90;;;;;;6243094;23;20008;-91
2023/07/04 05:13:05;;;;;;;1.92;1.80;;;19.60;99.90;;;;;;6243001;23;20012;-92
2023/07/04 05:15:30;;;;;;;2.15;1.83;;;19.60;99.90;;;;;;6243040;23;20004;-91
2023/07/04 05:17:57;;;;;;;1.92;1.83;;;19.60;99.90;;;;;;6242924;23;20096;-92
2023/07/04 05:20:23;;;;;;;2.25;1.88;;;19.70;99.90;;;;;;6243287;23;20000;-91
2023/07/04 05:22:56;;;;;;;2.03;1.65;;;19.70;99.90;;;;;;6244356;23;20004;-90
2023/07/04 05:25:22;;;;;;;2.50;1.70;;;19.70;99.90;;;;;;6244822;23;20004;-91
2023/07/04 05:27:50;;;;;;;2.00;1.90;;;19.70;99.90;;;;;;6246052;23;20000;-90
2023/07/04 05:30:16;;;;;;;3.67;2.35;;;19.70;99.90;;;;;;6246215;23;20436;-90
2023/07/04 05:32:42;;;;;;;4.13;2.20;;;19.80;99.90;;;;;;6247639;23;20027;-90
2023/07/04 05:35:08;;;;;;;2.10;1.90;;;19.80;99.90;;;;;;6247685;23;20007;-89
2023/07/04 05:37:34;;;;;;;2.25;2.05;;;19.80;99.90;;;;;;6245184;23;20091;-89
2023/07/04 05:40:00;;;;;;;2.10;2.00;;;19.90;99.90;;;;;;6245909;23;20453;-90
2023/07/04 05:42:27;;;;;;;2.22;2.00;;;20.00;99.90;;;;;;6246200;23;20027;-90
2023/07/04 05:44:53;;;;;;;2.10;1.83;;;20.00;99.90;;;;;;6246177;23;20011;-90
2023/07/04 05:47:19;;;;;;;2.50;1.90;;;20.10;99.90;;;;;;6247577;23;20075;-90
2023/07/04 05:49:44;;;;;;;4.03;1.95;;;20.10;99.90;;;;;;6246153;23;20031;-90
2023/07/04 05:52:10;;;;;;;2.33;2.10;;;20.20;99.90;;;;;;6247355;23;20000;-90
2023/07/04 05:54:36;;;;;;;3.38;1.92;;;20.30;99.90;;;;;;6247101;23;20621;-90
2023/07/04 05:57:02;;;;;;;2.10;1.98;;;20.40;99.90;;;;;;6220310;23;20011;-90
2023/07/04 05:59:27;;;;;;;2.72;1.98;;;20.40;99.90;;;;;;6247391;23;20059;-89
2023/07/04 06:01:53;;;;;;;3.58;2.10;;;20.50;99.90;;;;;;6220446;23;20004;-89
2023/07/04 06:04:19;;;;;;;2.40;2.20;;;20.60;99.90;;;;;;6220708;23;20126;-90
2023/07/04 06:06:53;;;;;;;2.47;2.03;;;20.70;99.90;;;;;;6220809;23;20028;-89
2023/07/04 06:09:20;;;;;;;3.58;2.08;;;20.70;99.90;;;;;;6220690;23;20516;-89
2023/07/04 06:11:48;;;;;;;3.85;2.33;;;20.80;99.90;;;;;;6247119;23;20004;-88
2023/07/04 06:14:28;;;;;;;3.00;1.92;;;20.90;99.90;;;;;;6220316;23;20004;-88
2023/07/04 06:16:57;;;;;;;5.32;2.30;;;21.00;99.90;;;;;;6220367;23;20004;-89
2023/07/04 06:19:27;;;;;;;1.98;1.88;;;21.10;99.90;;;;;;6220649;23;20335;-89
2023/07/04 06:21:53;;;;;;;1.88;1.77;;;21.10;99.90;;;;;;6247068;23;20004;-89
2023/07/04 06:24:18;;;;;;;2.58;2.38;;;21.20;99.90;;;;;;6220441;23;20149;-89
2023/07/04 06:26:45;;;;;;;2.17;2.00;;;21.30;99.90;;;;;;6220343;23;20004;-88
2023/07/04 06:29:11;;;;;;;4.70;2.10;;;21.30;99.90;;;;;;6247081;23;20000;-88
2023/07/04 06:31:41;;;;;;;2.13;2.03;;;21.40;99.90;;;;;;6220082;23;20051;-89
2023/07/04 06:34:08;;;;;;;1.77;1.67;;;21.50;99.90;;;;;;6220439;23;20004;-89
2023/07/04 06:36:34;;;;;;;2.17;1.80;;;21.50;99.90;;;;;;6220034;23;20095;-89
2023/07/04 06:39:00;;;;;;;2.08;1.90;;;21.60;99.90;;;;;;6246930;23;20027;-88
2023/07/04 06:41:26;;;;;;;2.28;2.08;;;21.70;99.90;;;;;;6246920;23;20000;-89
2023/07/04 06:43:51;;;;;;;2.13;2.03;;;21.70;99.90;;;;;;6246875;23;20325;-88
2023/07/04 06:46:20;;;;;;;2.63;2.25;;;21.80;99.90;;;;;;6219536;23;20364;-87
2023/07/04 06:48:47;;;;;;;2.05;1.90;;;21.90;99.90;;;;;;6246275;23;20026;-88
2023/07/04 06:51:13;;;;;;;2.58;1.90;;;21.90;99.90;;;;;;6246364;23;20007;-88
2023/07/04 06:53:41;;;;;;;2.78;2.33;;;22.00;99.90;;;;;;6236659;23;20016;-87
2023/07/04 06:56:11;;;;;;;3.08;1.90;;;22.00;99.90;;;;;;6244886;23;20028;-87
2023/07/04 06:58:40;;;;;;;2.45;2.15;;;22.10;99.90;;;;;;6244755;23;20000;-87
2023/07/04 07:01:11;;;;;;;4.40;2.28;;;22.20;99.90;;;;;;6244478;23;19992;-87
2023/07/04 07:03:36;;;;;;;3.70;2.00;;;22.20;99.90;;;;;;6246189;23;20000;-87
2023/07/04 07:06:10;;;;;;;3.03;1.88;;;22.30;99.90;;;;;;6244464;23;20062;-86
2023/07/04 07:08:37;;;;;;;2.80;1.52;;;22.40;99.90;;;;;;6245943;23;20007;-85
2023/07/04 07:11:11;;;;;;;1.15;1.15;;;22.40;99.90;;;;;;6244244;23;20015;-86
2023/07/04 07:13:39;;;;;;;2.13;1.05;;;22.50;99.90;;;;;;6245897;23;20004;-85
2023/07/04 07:16:14;;;;;;;2.65;1.10;;;22.50;99.90;;;;;;6244193;23;20004;-85
2023/07/04 07:18:43;;;;;;;1.35;1.25;;;22.50;99.90;;;;;;6244650;23;20418;-77
2023/07/04 07:21:12;;;;;;;1.30;1.20;;;22.50;99.90;;;;;;6244307;23;20061;-77
2023/07/04 07:23:39;;;;;;;1.73;1.17;;;22.60;99.90;;;;;;6245746;23;20004;-77
2023/07/04 07:26:07;;;;;;;1.77;1.67;;;22.60;99.90;;;;;;6243739;23;20444;-77
2023/07/04 07:28:38;;;;;;;1.50;1.27;;;22.60;99.90;;;;;;6245671;23;20058;-77
2023/07/04 07:31:12;;;;;;;1.27;1.17;;;22.60;99.90;;;;;;6245773;23;20004;-77
2023/07/04 07:33:41;;;;;;;3.55;1.40;;;22.60;99.90;;;;;;6244520;23;20014;-77
2023/07/04 07:36:12;;;;;;;1.30;1.20;;;22.60;99.90;;;;;;6245866;23;20110;-77
2023/07/04 07:38:37;;;;;;;1.10;1.00;;;22.70;99.90;;;;;;6243880;23;19996;-77
2023/07/04 07:41:05;;;;;;;1.73;1.20;;;22.70;99.90;;;;;;6242453;23;20011;-77
2023/07/04 07:43:31;;;;;;;1.40;1.30;;;22.80;99.90;;;;;;6242528;23;20008;-77
2023/07/04 07:45:57;;;;;;;1.50;1.35;;;22.80;99.90;;;;;;6243105;23;20048;-77
2023/07/04 07:48:22;;;;;;;4.35;1.23;;;22.90;99.90;;;;;;6242295;23;20118;-76
2023/07/04 07:50:52;;;;;;;1.60;1.15;;;22.90;99.90;;;;;;6242252;23;20000;-76
2023/07/04 07:53:17;;;;;;;3.42;1.30;;;22.90;99.90;;;;;;6241845;23;20133;-76
2023/07/04 07:55:43;;;;;;;1.55;1.25;;;23.00;99.90;;;;;;6215377;23;20432;-76
2023/07/04 07:58:09;;;;;;;3.47;1.73;;;23.00;99.90;;;;;;6215029;23;20340;-76
2023/07/04 08:00:35;;;;;;;1.60;1.50;;;23.00;99.90;;;;;;6215388;23;20386;-76
2023/07/04 08:03:04;;;;;;;2.45;1.30;;;23.00;99.90;;;;;;6216740;23;20428;-76
2023/07/04 08:05:30;;;;;;;2.42;1.52;;;23.00;99.90;;;;;;6243868;23;20004;-76
2023/07/04 08:07:55;;;;;;;3.90;1.85;;;23.10;99.90;;;;;;6216976;23;20015;-76
2023/07/04 08:10:21;;;;;;;2.55;1.35;;;23.10;99.90;;;;;;6244059;23;20087;-76
2023/07/04 08:12:47;;;;;;;1.30;1.20;;;23.00;99.90;;;;;;6243671;23;20050;-76
2023/07/04 08:15:13;;;;;;;1.35;1.13;;;23.10;99.90;;;;;;6216981;23;20114;-76
2023/07/04 08:17:38;;;;;;;1.40;1.30;;;23.10;99.90;;;;;;6243493;23;20000;-76
2023/07/04 08:20:05;;;;;;;2.08;1.48;;;23.10;99.90;;;;;;6216941;23;20378;-76
2023/07/04 08:22:31;;;;;;;3.05;1.27;;;23.10;99.90;;;;;;6216614;23;20031;-75
2023/07/04 08:24:58;;;;;;;2.15;1.23;;;23.10;99.90;;;;;;6216890;23;20100;-75
2023/07/04 08:27:25;;;;;;;2.17;1.35;;;23.20;99.90;;;;;;6216674;23;20485;-75
2023/07/04 08:29:51;;;;;;;1.10;1.05;;;23.20;99.90;;;;;;6217025;23;20004;-76
2023/07/04 08:32:20;;;;;;;3.95;1.20;;;23.30;99.90;;;;;;6243344;23;20004;-75
2023/07/04 08:34:46;;;;;;;1.30;1.20;;;23.40;99.90;;;;;;6216710;23;20474;-76
2023/07/04 08:37:14;;;;;;;5.35;1.40;;;23.40;99.90;;;;;;6243264;23;20167;-76
2023/07/04 08:39:45;;;;;;;1.35;1.20;;;23.40;99.90;;;;;;6243597;23;20003;-75
2023/07/04 08:42:14;;;;;;;1.40;1.30;;;23.50;99.90;;;;;;6216770;23;20031;-75
2023/07/04 08:44:48;;;;;;;2.75;1.40;;;23.50;99.90;;;;;;6216447;23;20031;-76
2023/07/04 08:47:18;;;;;;;2.53;1.17;;;23.60;99.90;;;;;;6216292;23;20008;-75
2023/07/04 08:49:49;;;;;;;2.17;1.65;;;23.70;99.90;;;;;;6243749;23;20009;-75
2023/07/04 08:52:23;;;;;;;2.78;1.23;;;23.70;99.90;;;;;;6243204;23;20062;-76
2023/07/04 08:54:49;;;;;;;3.47;1.65;;;23.60;99.90;;;;;;6243729;23;20050;-76
2023/07/04 08:57:21;;;;;;;1.60;1.50;;;23.70;99.90;;;;;;6243394;23;20008;-75
2023/07/04 08:59:55;;;;;;;3.15;1.50;;;23.70;99.90;;;;;;6243820;23;20375;-75
2023/07/04 09:02:57;;;;;;;1.67;1.52;;;23.70;99.90;;;;;;6216417;23;20012;-75
2023/07/04 09:06:05;;;;;;;1.80;1.65;;;23.80;99.90;;;;;;6245407;23;20000;-75
2023/07/04 09:08:30;;;;;;;1.55;1.10;;;23.90;99.90;;;;;;6245741;23;20486;-75
2023/07/04 09:11:01;;;;;;;5.15;2.13;;;24.00;99.90;;;;;;6218457;23;20012;-75
2023/07/04 09:13:32;;;;;;;1.92;1.65;;;24.10;99.90;;;;;;6245379;23;20371;-75
2023/07/04 09:16:05;;;;;;;1.50;1.40;;;24.10;99.90;;;;;;6245473;23;20074;-75
2023/07/04 09:18:56;;;;;;;1.92;1.67;;;24.10;99.90;;;;;;6245458;23;20371;-75
2023/07/04 09:21:23;;;;;;;1.92;1.67;;;24.10;99.90;;;;;;6245165;23;20003;-75
2023/07/04 09:23:51;;;;;;;2.63;1.85;;;24.20;99.90;;;;;;6245561;23;20000;-75
2023/07/04 09:26:24;;;;;;;1.95;1.80;;;24.10;99.90;;;;;;6245329;23;20101;-75
2023/07/04 09:28:52;;;;;;;6.70;2.15;;;24.30;99.90;;;;;;6245280;23;20083;-75
2023/07/04 09:31:30;;;;;;;4.15;1.90;;;24.40;99.90;;;;;;6218492;23;20340;-75
2023/07/04 09:33:57;;;;;;;1.83;1.73;;;24.40;99.90;;;;;;6244998;23;20011;-74
2023/07/04 09:36:31;;;;;;;2.15;1.75;;;24.40;99.90;;;;;;6245278;23;20000;-75
2023/07/04 09:39:00;;;;;;;1.70;1.60;;;24.40;99.90;;;;;;6245243;23;20000;-75
2023/07/04 09:41:29;;;;;;;1.50;1.40;;;24.50;99.90;;;;;;6218154;23;20309;-75
2023/07/04 09:44:09;;;;;;;2.15;1.95;;;24.50;99.90;;;;;;6245261;23;20419;-75
2023/07/04 09:46:35;;;;;;;2.03;1.88;;;24.60;99.90;;;;;;6244824;23;20006;-75
2023/07/04 09:49:27;;;;;;;1.95;1.80;;;24.50;99.90;;;;;;6245265;23;20012;-75
2023/07/04 09:52:09;;;;;;;1.73;1.63;;;24.60;99.90;;;;;;6244894;23;20008;-75
2023/07/04 09:54:37;;;;;;;3.80;1.90;;;24.70;99.90;;;;;;6218348;23;20004;-75
2023/07/04 09:57:20;;;;;;;2.03;1.75;;;24.80;99.90;;;;;;6245042;23;20000;-75
2023/07/04 09:59:46;;;;;;;2.22;2.03;;;24.90;99.90;;;;;;6245272;23;20007;-75
2023/07/04 10:02:34;;;;;;;1.90;1.80;;;24.90;99.90;;;;;;6244633;23;20004;-74
2023/07/04 10:05:00;;;;;;;2.70;2.03;;;24.90;99.90;;;;;;6217530;23;20008;-75
2023/07/04 10:07:27;;;;;;;2.17;1.90;;;24.80;99.90;;;;;;6244778;23;20343;-75
2023/07/04 10:10:01;;;;;;;1.95;1.80;;;24.90;99.90;;;;;;6245177;23;20347;-74
2023/07/04 10:12:31;;;;;;;1.98;1.77;;;25.00;99.90;;;;;;6244512;23;20106;-75
2023/07/04 10:14:59;;;;;;;2.63;2.00;;;25.00;99.90;;;;;;6245009;23;20489;-75
2023/07/04 10:17:27;;;;;;;1.85;1.75;;;25.00;99.90;;;;;;6217573;23;20005;-75
2023/07/04 10:19:56;;;;;;;4.00;1.98;;;25.00;99.90;;;;;;6245014;23;20004;-74
2023/07/04 10:22:33;;;;;;;3.13;2.67;;;25.10;99.90;;;;;;6244673;23;20443;-74
2023/07/04 10:25:00;;;;;;;2.67;2.20;;;25.10;99.90;;;;;;6245138;23;20079;-75
2023/07/04 10:27:34;;;;;;;2.80;1.95;;;25.10;99.90;;;;;;6244219;23;20000;-74
2023/07/04 10:30:03;;;;;;;2.80;2.17;;;25.20;99.90;;;;;;6218113;23;20110;-74
2023/07/04 10:32:42;;;;;;;2.03;1.92;;;25.30;99.90;;;;;;6217320;23;20004;-74
2023/07/04 10:35:15;;;;;;;2.33;1.70;;;25.50;99.90;;;;;;6244806;23;20328;-75
2023/07/04 10:37:46;;;;;;;2.10;1.88;;;25.70;99.90;;;;;;6217539;23;20011;-75
2023/07/04 10:40:15;;;;;;;1.77;1.67;;;25.90;99.90;;;;;;6218030;23;20000;-74
2023/07/04 10:42:44;;;;;;;2.13;1.92;;;26.00;99.90;;;;;;6244167;23;20223;-74
2023/07/04 10:45:14;;;;;;;3.45;1.92;;;26.00;99.90;;;;;;6217900;23;20065;-75
2023/07/04 10:47:41;;;;;;;2.40;2.30;;;26.20;99.90;;;;;;6244175;23;20328;-75
2023/07/04 10:50:39;;;;;;;2.05;1.83;;;26.30;99.90;;;;;;6244692;23;20483;-75
2023/07/04 10:53:08;;;;;;;4.38;1.90;;;26.30;99.90;;;;;;6244260;23;20012;-74
2023/07/04 10:55:46;;;;;;;2.10;2.00;;;26.40;99.90;;;;;;6244409;23;20004;-75
2023/07/04 10:58:19;;;;;;;1.92;1.83;;;26.40;99.90;;;;;;6244485;23;20075;-74
2023/07/04 11:00:58;;;;;;;2.20;2.00;;;26.60;99.90;;;;;;6244154;23;19996;-75
2023/07/04 11:03:44;;;;;;;6.72;1.83;;;26.60;99.90;;;;;;6244183;23;20026;-74
2023/07/04 11:06:22;;;;;;;2.35;2.15;;;26.80;99.90;;;;;;6217279;23;20004;-74
2023/07/04 11:08:50;;;;;;;3.70;1.98;;;26.90;99.90;;;;;;6244297;23;20129;-75
2023/07/04 11:11:28;;;;;;;3.88;1.92;;;26.90;99.90;;;;;;6244383;23;20046;-74
2023/07/04 11:14:00;;;;;;;2.70;2.47;;;27.00;99.90;;;;;;6217165;23;20331;-74
2023/07/04 11:16:28;;;;;;;;;;;27.30;99.90;;;;;;6244666;23;19996;-74
2023/07/04 11:19:07;;;;;;;3.78;2.10;;;27.40;99.90;;;;;;6244076;23;19900;-74
2023/07/04 11:21:33;;;;;;;1.90;1.80;;;27.50;99.90;;;;;;6244237;23;20000;-74
2023/07/04 11:24:18;;;;;;;2.45;2.25;;;27.60;99.90;;;;;;6244116;23;20029;-75
2023/07/04 11:26:58;;;;;;;2.42;2.20;;;27.70;99.90;;;;;;6243746;23;20007;-74
2023/07/04 11:29:24;;;;;;;2.05;1.90;;;27.80;99.90;;;;;;6217520;23;20053;-74
2023/07/04 11:32:05;;;;;;;3.08;2.05;;;27.80;99.90;;;;;;6243847;23;20024;-74
2023/07/04 11:34:45;;;;;;;2.30;2.20;;;27.70;99.90;;;;;;6244239;23;20131;-74
2023/07/04 11:37:22;;;;;;;2.40;2.20;;;27.90;99.90;;;;;;6243843;23;20007;-74
2023/07/04 11:39:52;;;;;;;2.03;1.92;;;28.00;99.90;;;;;;6244038;23;20368;-74
2023/07/04 11:42:38;;;;;;;2.50;2.15;;;28.10;99.90;;;;;;6217164;23;20340;-74
2023/07/04 11:45:07;;;;;;;2.67;2.25;;;28.20;99.90;;;;;;6217528;23;20008;-74
2023/07/04 11:47:42;;;;;;;2.50;2.30;;;28.20;99.90;;;;;;6243379;23;20019;-74
2023/07/04 11:50:13;;;;;;;2.28;2.10;;;28.30;99.90;;;;;;6217345;23;20379;-74
2023/07/04 11:52:42;;;;;;;2.80;2.30;;;28.40;99.90;;;;;;6243473;23;20012;-74
2023/07/04 11:55:17;;;;;;;2.60;2.08;;;28.60;99.90;;;;;;6244217;23;20001;-74
2023/07/04 11:58:02;;;;;;;1.80;1.70;;;28.70;99.90;;;;;;6243922;23;19996;-75
2023/07/04 12:00:39;;;;;;;1.90;1.77;;;28.90;99.90;;;;;;6243725;23;19992;-75
2023/07/04 12:03:20;;;;;;;2.08;1.88;;;29.00;99.90;;;;;;6243529;23;20004;-74
2023/07/04 12:05:50;;;;;;;2.40;2.30;;;29.20;99.90;;;;;;6243940;23;20004;-74
2023/07/04 12:08:34;;;;;;;2.28;2.08;;;29.30;99.90;;;;;;6243959;23;20062;-74
2023/07/04 12:11:04;;;;;;;5.32;2.00;;;29.30;99.90;;;;;;6243757;23;20006;-74
2023/07/04 12:13:34;;;;;;;2.25;2.10;;;29.40;99.90;;;;;;6243951;23;20004;-74
2023/07/04 12:16:01;;;;;;;2.90;2.08;;;29.50;99.90;;;;;;6243870;23;20490;-74
2023/07/04 12:18:28;;;;;;;3.40;2.10;;;29.50;99.90;;;;;;6243634;23;19996;-75
2023/07/04 12:20:57;;;;;;;6.45;1.85;;;29.50;99.90;;;;;;6216624;23;20000;-74
2023/07/04 12:23:23;;;;;;;3.15;1.90;;;29.60;99.90;;;;;;6243830;23;20063;-75
2023/07/04 12:25:55;;;;;;;2.20;2.10;;;29.70;99.90;;;;;;6243466;23;20506;-75
2023/07/04 12:28:24;;;;;;;;;;;29.90;99.90;;;;;;6244081;23;20004;-74
2023/07/04 12:30:58;;;;;;;5.22;1.90;;;30.00;99.90;;;;;;6243259;23;19934;-75
2023/07/04 12:33:25;;;;;;;3.63;1.60;;;30.00;99.90;;;;;;6243465;23;20004;-74
2023/07/04 12:35:56;;;;;;;1.65;1.55;;;29.90;97.90;;;;;;6243473;23;20000;-74
2023/07/04 12:38:26;;;;;;;3.38;1.83;;;29.80;99.90;;;;;;6243772;23;20000;-74
2023/07/04 12:40:52;;;;;;;1.60;1.50;;;29.80;99.90;;;;;;6243608;23;20011;-74
2023/07/04 12:43:20;;;;;;;2.15;1.83;;;29.70;99.90;;;;;;6243516;23;20066;-75
2023/07/04 12:45:46;;;;;;;2.25;1.73;;;29.60;99.90;;;;;;6216571;23;20416;-75
2023/07/04 12:48:13;;;;;;;1.83;1.73;;;29.90;99.90;;;;;;6243577;23;20000;-74
2023/07/04 12:50:52;;;;;;;1.60;1.50;;;29.90;99.90;;;;;;6243666;23;20559;-74
2023/07/04 12:53:19;;;;;;;1.70;1.45;;;30.20;99.90;;;;;;6243425;23;20039;-74
2023/07/04 12:55:45;;;;;;;3.38;1.65;;;30.30;99.90;;;;;;6243320;23;20023;-75
2023/07/04 12:58:13;;;;;;;1.60;1.50;;;30.40;98.10;;;;;;6243551;23;20055;-74
2023/07/04 13:00:43;;;;;;;1.60;1.30;;;30.50;98.10;;;;;;6243336;23;20318;-74
2023/07/04 13:03:17;;;;;;;2.92;1.45;;;30.60;95.80;;;;;;6243433;23;20501;-74
2023/07/04 13:05:45;;;;;;;1.65;1.50;;;30.70;95.40;;;;;;6243443;23;20004;-74
2023/07/04 13:08:29;;;;;;;1.75;1.65;;;30.70;93.10;;;;;;6243365;23;20094;-74
2023/07/04 13:10:58;;;;;;;1.58;1.40;;;30.60;93.50;;;;;;6243283;23;20004;-74
2023/07/04 13:14:05;;;;;;;2.15;1.25;;;30.60;97.00;;;;;;6243427;23;20004;-74
2023/07/04 13:16:32;;;;;;;1.77;1.67;;;30.90;99.20;;;;;;6184082;23;20004;-74
2023/07/04 13:19:04;;;;;;;3.08;1.63;;;31.00;95.90;;;;;;6243341;23;20023;-74
2023/07/04 13:21:35;;;;;;;2.20;1.75;;;31.20;98.40;;;;;;6243350;23;20022;-74
2023/07/04 13:24:03;;;;;;;3.95;1.52;;;31.20;96.60;;;;;;6216904;23;20007;-74
2023/07/04 13:26:33;;;;;;;1.98;1.80;;;31.20;95.40;;;;;;6243065;23;20000;-74
2023/07/04 13:29:18;;;;;;;1.77;1.67;;;31.30;94.50;;;;;;6243571;23;20028;-74
2023/07/04 13:31:44;;;;;;;1.70;1.52;;;31.30;94.10;;;;;;6243271;23;20413;-74
2023/07/04 13:34:21;;;;;;;2.40;1.90;;;31.30;95.80;;;;;;6243260;23;20024;-74
2023/07/04 13:36:53;;;;;;;2.10;1.58;;;31.40;94.50;;;;;;6243285;23;19996;-75
2023/07/04 13:39:20;;;;;;;2.65;1.67;;;31.50;94.00;;;;;;6243729;23;20000;-74
2023/07/04 13:41:50;;;;;;;2.13;1.42;;;31.60;94.00;;;;;;6243142;23;20004;-74
2023/07/04 13:44:17;;;;;;;1.67;1.57;;;31.60;92.20;;;;;;6243112;23;20000;-74
2023/07/04 13:46:43;;;;;;;1.65;1.55;;;31.60;91.90;;;;;;6216438;23;20004;-74
2023/07/04 13:49:08;;;;;;;1.55;1.38;;;31.70;92.20;;;;;;6243417;23;20000;-74
2023/07/04 13:51:35;;;;;;;2.60;1.33;;;31.70;90.20;;;;;;6244905;23;20000;-74
2023/07/04 13:54:02;;;;;;;4.82;1.63;;;31.80;90.70;;;;;;6245024;23;20015;-74